Time;durP1;ratioP1;P1;durP2;ratioP2;P2;SDS_P1;SDS_P2;PMS_P1;PMS_P2;Temp;Humidity;BMP_temperature;BMP_pressure;BME280_temperature;BME280_humidity;BME280_pressure;Samples;Min_cycle;Max_cycle;Signal;HPM_P1;HPM_P2
2021/11/11 00:02:21;;;;;;;20.92;12.70;;;;;;;1.43;81.20;100404.63;4989384;28;20053;-71
2021/11/11 00:04:47;;;;;;;22.83;12.13;;;;;;;1.48;81.26;100413.28;5008744;28;20034;-72
2021/11/11 00:07:12;;;;;;;27.38;13.18;;;;;;;1.44;80.75;100411.53;5008895;28;20489;-71
2021/11/11 00:09:38;;;;;;;19.65;14.30;;;;;;;1.42;80.77;100416.72;5008471;28;20591;-71
2021/11/11 00:12:04;;;;;;;24.00;12.50;;;;;;;1.41;80.62;100412.41;5006854;28;20037;-71
2021/11/11 00:14:30;;;;;;;26.30;12.65;;;;;;;1.35;80.99;100399.41;5006456;28;20511;-71
2021/11/11 00:16:55;;;;;;;22.13;13.23;;;;;;;1.30;81.06;100398.56;5007557;28;20030;-70
2021/11/11 00:19:21;;;;;;;21.80;14.18;;;;;;;1.23;81.36;100402.03;5007002;28;20128;-69
2021/11/11 00:21:46;;;;;;;20.80;11.73;;;;;;;1.21;81.19;100404.66;5006998;28;20449;-70
2021/11/11 00:24:12;;;;;;;22.00;12.60;;;;;;;1.22;81.46;100400.31;5006074;28;20033;-70
2021/11/11 00:26:38;;;;;;;17.80;10.05;;;;;;;1.18;81.81;100395.97;4991089;28;20700;-71
2021/11/11 00:29:03;;;;;;;22.70;11.45;;;;;;;1.18;81.00;100391.69;5022904;28;20404;-70
2021/11/11 00:31:29;;;;;;;28.05;13.45;;;;;;;1.18;81.25;100385.59;5025713;28;20045;-70
2021/11/11 00:33:54;;;;;;;20.63;12.80;;;;;;;1.16;80.70;100392.53;5026992;28;20025;-71
2021/11/11 00:36:20;;;;;;;25.27;13.85;;;;;;;1.15;80.93;100391.66;5026891;28;20116;-70
2021/11/11 00:38:46;;;;;;;19.90;11.70;;;;;;;1.19;81.13;100385.59;5009271;28;20037;-70
2021/11/11 00:41:11;;;;;;;15.57;10.82;;;;;;;1.23;80.82;100383.84;5022750;28;20156;-71
2021/11/11 00:43:38;;;;;;;15.65;10.55;;;;;;;1.25;81.13;100384.72;5007270;28;20121;-71
2021/11/11 00:46:03;;;;;;;21.10;12.20;;;;;;;1.21;79.68;100377.81;5006789;28;20030;-71
2021/11/11 00:48:29;;;;;;;33.30;13.52;;;;;;;1.16;80.99;100379.56;5006929;28;20091;-71
2021/11/11 00:50:54;;;;;;;18.33;11.10;;;;;;;1.16;81.03;100382.16;5006437;28;20042;-71
2021/11/11 00:53:20;;;;;;;24.20;11.95;;;;;;;1.15;80.71;100376.06;5007363;28;20049;-71
2021/11/11 00:55:46;;;;;;;18.70;11.85;;;;;;;1.17;80.53;100382.13;5006614;28;20068;-71
2021/11/11 00:58:12;;;;;;;16.35;10.35;;;;;;;1.17;80.84;100376.94;5006499;28;20038;-71
2021/11/11 01:00:38;;;;;;;19.50;12.27;;;;;;;1.19;80.42;100374.34;4989298;28;20691;-71
2021/11/11 01:03:05;;;;;;;21.42;13.05;;;;;;;1.19;80.92;100370.03;5006912;28;20042;-70
2021/11/11 01:05:31;;;;;;;23.33;12.70;;;;;;;1.17;80.53;100357.91;5007076;28;20041;-71
2021/11/11 01:07:57;;;;;;;22.83;12.38;;;;;;;1.14;80.14;100353.59;5007412;28;20025;-70
2021/11/11 01:10:22;;;;;;;33.00;13.10;;;;;;;1.14;80.38;100363.13;5006527;28;20041;-71
2021/11/11 01:12:49;;;;;;;24.25;14.15;;;;;;;1.12;80.17;100359.66;5007034;28;20038;-71
2021/11/11 01:15:18;;;;;;;21.58;12.73;;;;;;;1.13;80.57;100362.22;5001172;28;20038;-71
2021/11/11 01:17:44;;;;;;;23.58;11.85;;;;;;;1.15;80.75;100359.63;5005899;28;20038;-71
2021/11/11 01:20:11;;;;;;;20.98;13.10;;;;;;;1.11;80.55;100365.69;5006562;28;20041;-71
2021/11/11 01:22:37;;;;;;;21.23;12.55;;;;;;;1.09;80.63;100354.47;5007152;28;20667;-70
2021/11/11 01:25:09;;;;;;;25.10;14.05;;;;;;;1.09;80.97;100351.88;5006954;28;20038;-70
2021/11/11 01:27:34;;;;;;;25.52;13.80;;;;;;;1.03;81.04;100344.94;5006882;28;20096;-70
2021/11/11 01:30:00;;;;;;;30.10;14.05;;;;;;;1.05;81.19;100349.25;5006410;28;20526;-71
2021/11/11 01:32:25;;;;;;;22.63;13.38;;;;;;;1.08;81.23;100348.38;5006327;28;20402;-71
2021/11/11 01:34:54;;;;;;;21.02;11.35;;;;;;;1.05;80.78;100340.63;5006295;28;20138;-71
2021/11/11 01:37:19;;;;;;;22.02;13.52;;;;;;;1.03;81.31;100332.84;5006291;28;20128;-71
2021/11/11 01:39:45;;;;;;;21.08;12.00;;;;;;;1.06;80.89;100332.84;5006336;28;20121;-70
2021/11/11 01:42:10;;;;;;;22.13;12.20;;;;;;;1.07;80.32;100337.16;5006051;28;20037;-71
2021/11/11 01:44:36;;;;;;;19.05;11.63;;;;;;;1.06;80.14;100331.97;5007328;28;20041;-71
2021/11/11 01:47:01;;;;;;;18.88;12.70;;;;;;;1.04;80.30;100329.38;5006466;28;20034;-70
2021/11/11 01:49:26;;;;;;;20.63;11.90;;;;;;;1.01;80.40;100334.56;5007300;28;20037;-70
2021/11/11 01:51:52;;;;;;;17.73;10.48;;;;;;;0.99;80.32;100328.50;5008370;28;20046;-70
2021/11/11 01:54:18;;;;;;;15.73;10.02;;;;;;;1.00;79.91;100327.63;5010309;28;20187;-70
2021/11/11 01:56:45;;;;;;;22.33;11.35;;;;;;;1.00;80.21;100325.03;5008925;28;20088;-70
2021/11/11 01:59:11;;;;;;;16.92;10.27;;;;;;;0.98;80.05;100318.97;5010746;28;20045;-70
2021/11/11 02:01:36;;;;;;;22.13;11.80;;;;;;;0.93;81.21;100323.31;4983698;28;20092;-70
2021/11/11 02:04:02;;;;;;;25.13;11.90;;;;;;;0.91;80.85;100325.06;5009598;28;20041;-70
2021/11/11 02:06:28;;;;;;;18.13;11.00;;;;;;;0.96;81.59;100327.63;5010486;28;20044;-70
2021/11/11 02:08:53;;;;;;;26.48;15.57;;;;;;;0.98;80.42;100329.34;5010071;28;20038;-71
2021/11/11 02:11:22;;;;;;;19.45;11.20;;;;;;;0.95;81.23;100334.56;5007236;28;20065;-71
2021/11/11 02:13:47;;;;;;;27.98;13.27;;;;;;;0.92;80.31;100329.38;4992385;28;20041;-70
2021/11/11 02:16:12;;;;;;;21.92;13.10;;;;;;;0.94;81.14;100329.41;4992003;28;20770;-71
2021/11/11 02:18:38;;;;;;;25.52;13.63;;;;;;;0.93;81.30;100336.28;5009633;28;20034;-71
2021/11/11 02:21:03;;;;;;;22.17;14.48;;;;;;;0.92;81.20;100334.56;5007852;28;20042;-71
2021/11/11 02:23:29;;;;;;;27.90;13.10;;;;;;;0.94;80.94;100330.25;5009035;28;20038;-71
2021/11/11 02:25:55;;;;;;;22.30;13.68;;;;;;;0.92;80.34;100326.78;4992886;28;20552;-71
2021/11/11 02:28:21;;;;;;;26.45;13.68;;;;;;;0.87;80.34;100330.28;5022786;28;20044;-71
2021/11/11 02:30:50;;;;;;;19.55;12.30;;;;;;;0.84;80.90;100325.94;5028655;28;20037;-71
2021/11/11 02:33:21;;;;;;;29.90;16.05;;;;;;;0.84;81.76;100333.72;5028817;28;20490;-71
2021/11/11 02:35:46;;;;;;;28.08;13.77;;;;;;;0.83;81.45;100334.56;5028931;28;20068;-70
2021/11/11 02:38:13;;;;;;;19.27;11.20;;;;;;;0.85;81.23;100327.66;5028962;28;20545;-70
2021/11/11 02:40:39;;;;;;;18.20;11.68;;;;;;;0.88;81.01;100335.44;5028384;28;20045;-70
2021/11/11 02:43:05;;;;;;;18.88;11.63;;;;;;;0.88;80.87;100340.63;5006116;28;20133;-70
2021/11/11 02:45:34;;;;;;;22.25;12.18;;;;;;;0.87;80.25;100343.25;5009622;28;20627;-70
2021/11/11 02:48:01;;;;;;;19.83;12.48;;;;;;;0.90;80.54;100348.44;4991502;28;20042;-70
2021/11/11 02:50:28;;;;;;;26.30;13.90;;;;;;;0.87;80.57;100338.91;4990621;28;20037;-70
2021/11/11 02:52:56;;;;;;;22.27;12.15;;;;;;;0.86;80.98;100342.34;5009408;28;20038;-70
2021/11/11 02:55:22;;;;;;;26.75;12.05;;;;;;;0.87;80.27;100338.06;5009223;28;20045;-70
2021/11/11 02:57:50;;;;;;;19.08;10.88;;;;;;;0.87;80.00;100340.66;5009100;28;20371;-71
2021/11/11 03:00:20;;;;;;;24.45;14.30;;;;;;;0.78;80.24;100334.56;5009571;28;20048;-71
2021/11/11 03:02:49;;;;;;;16.02;10.10;;;;;;;0.71;80.84;100327.66;5010416;28;20486;-71
2021/11/11 03:05:18;;;;;;;21.63;12.35;;;;;;;0.72;80.36;100328.53;5008688;28;20513;-70
2021/11/11 03:07:44;;;;;;;17.60;9.43;;;;;;;0.74;80.94;100321.59;5008827;28;20044;-70
2021/11/11 03:10:12;;;;;;;21.75;12.98;;;;;;;0.73;80.63;100325.06;5008506;28;20040;-70
2021/11/11 03:12:38;;;;;;;19.55;12.20;;;;;;;0.72;81.08;100331.16;5008472;28;20042;-70
2021/11/11 03:15:05;;;;;;;22.50;10.27;;;;;;;0.70;80.54;100330.28;5002404;28;20061;-71
2021/11/11 03:17:30;;;;;;;21.25;10.98;;;;;;;0.68;80.47;100322.47;5008638;28;20042;-71
2021/11/11 03:19:55;;;;;;;24.67;11.95;;;;;;;0.67;81.15;100328.53;4990839;28;20060;-71
2021/11/11 03:22:21;;;;;;;23.00;13.38;;;;;;;0.70;80.58;100330.28;5008041;28;20160;-71
2021/11/11 03:24:48;;;;;;;18.92;10.45;;;;;;;0.72;79.80;100326.81;5008574;28;20054;-71
2021/11/11 03:27:14;;;;;;;18.17;10.85;;;;;;;0.72;80.11;100332.00;5008552;28;20037;-71
2021/11/11 03:29:40;;;;;;;26.95;14.63;;;;;;;0.71;80.70;100332.84;5008557;28;20139;-69
2021/11/11 03:32:06;;;;;;;25.95;13.93;;;;;;;0.71;80.92;100337.19;5008142;28;20068;-70
2021/11/11 03:34:32;;;;;;;23.95;14.25;;;;;;;0.74;80.27;100335.47;5008885;28;20516;-70
2021/11/11 03:36:58;;;;;;;20.50;13.32;;;;;;;0.76;80.73;100336.31;5009175;28;20025;-70
2021/11/11 03:39:25;;;;;;;22.30;12.20;;;;;;;0.72;81.04;100338.94;5008174;28;20042;-70
2021/11/11 03:41:52;;;;;;;24.20;13.45;;;;;;;0.73;80.94;100346.69;5007530;28;20038;-70
2021/11/11 03:44:19;;;;;;;21.73;11.15;;;;;;;0.75;80.74;100350.16;5007922;28;20062;-70
2021/11/11 03:46:47;;;;;;;27.50;13.23;;;;;;;0.73;80.32;100338.91;5008077;28;20077;-69
2021/11/11 03:49:14;;;;;;;23.40;12.77;;;;;;;0.69;80.41;100337.19;5007793;28;20033;-70
2021/11/11 03:51:41;;;;;;;20.95;12.20;;;;;;;0.66;80.71;100339.78;5007352;28;20065;-69
2021/11/11 03:54:07;;;;;;;24.50;14.07;;;;;;;0.62;80.05;100344.09;5007846;28;20041;-70
2021/11/11 03:56:34;;;;;;;30.48;16.00;;;;;;;0.58;80.26;100354.47;5008109;28;20225;-70
2021/11/11 03:59:00;;;;;;;27.90;14.07;;;;;;;0.57;80.08;100357.94;5009048;28;20040;-70
2021/11/11 04:01:26;;;;;;;26.63;15.05;;;;;;;0.57;81.10;100353.63;5009212;28;20093;-70
2021/11/11 04:03:51;;;;;;;24.90;15.38;;;;;;;0.61;81.28;100351.88;5009745;28;20563;-70
2021/11/11 04:06:17;;;;;;;21.10;12.05;;;;;;;0.58;81.11;100349.28;5008203;28;20431;-70
2021/11/11 04:08:43;;;;;;;19.85;11.55;;;;;;;0.62;80.12;100351.91;5007469;28;20069;-70
2021/11/11 04:11:08;;;;;;;29.90;13.60;;;;;;;0.61;80.90;100355.34;5006410;28;20042;-69
2021/11/11 04:13:34;;;;;;;20.05;13.20;;;;;;;0.55;80.49;100357.94;5006836;28;20030;-70
2021/11/11 04:16:00;;;;;;;21.27;13.27;;;;;;;0.54;80.65;100357.94;5007981;28;20391;-69
2021/11/11 04:18:25;;;;;;;20.27;11.35;;;;;;;0.55;80.79;100354.47;5007328;28;20500;-70
2021/11/11 04:20:52;;;;;;;20.75;11.93;;;;;;;0.54;80.06;100345.84;5006924;28;20409;-70
2021/11/11 04:23:17;;;;;;;23.27;11.80;;;;;;;0.53;80.60;100344.09;5007445;28;20076;-71
2021/11/11 04:28:25;;;;;;;21.85;13.13;;;;;;;0.49;80.46;100344.94;5005920;28;20030;-71
2021/11/11 04:30:54;;;;;;;29.77;13.98;;;;;;;0.47;80.47;100346.69;4989302;28;20595;-71
2021/11/11 04:33:20;;;;;;;34.83;17.13;;;;;;;0.42;80.30;100344.09;5007347;28;20061;-70
2021/11/11 04:35:49;;;;;;;24.20;13.48;;;;;;;0.42;81.35;100341.50;5007485;28;20064;-70
2021/11/11 04:38:33;;;;;;;26.98;15.85;;;;;;;0.41;81.67;100342.34;5006394;28;20100;-70
2021/11/11 05:04:26;;;;;;;26.88;14.07;;;;;;;0.50;80.28;100357.06;5006914;28;20064;-70
2021/11/11 05:06:53;;;;;;;28.85;14.38;;;;;;;0.50;80.73;100357.06;5006715;28;20109;-70
2021/11/11 05:09:18;;;;;;;30.25;15.18;;;;;;;0.46;80.51;100362.25;4989932;28;20034;-71
2021/11/11 05:11:43;;;;;;;24.60;13.90;;;;;;;0.48;81.36;100371.75;4990729;28;20639;-70
2021/11/11 05:14:09;;;;;;;31.35;16.52;;;;;;;0.53;80.90;100370.03;5006717;28;20038;-70
2021/11/11 05:16:34;;;;;;;30.85;15.90;;;;;;;0.53;80.67;100362.25;5004108;28;20043;-70
2021/11/11 05:19:00;;;;;;;21.77;14.30;;;;;;;0.54;80.38;100365.72;5006987;28;20038;-70
2021/11/11 05:21:25;;;;;;;27.77;14.50;;;;;;;0.55;80.14;100365.72;5006701;28;20058;-70
2021/11/11 05:23:50;;;;;;;24.25;13.02;;;;;;;0.50;79.87;100371.78;5009549;28;20042;-71
2021/11/11 05:26:16;;;;;;;31.42;15.18;;;;;;;0.47;80.48;100376.94;5011551;28;20025;-70
2021/11/11 05:28:42;;;;;;;20.92;12.52;;;;;;;0.41;81.04;100383.84;5009576;28;20409;-70
2021/11/11 05:31:08;;;;;;;23.42;14.90;;;;;;;0.43;81.31;100379.53;5009315;28;20041;-72
2021/11/11 05:33:34;;;;;;;28.90;16.60;;;;;;;0.40;80.98;100384.72;5011171;28;20034;-71
2021/11/11 05:35:59;;;;;;;25.77;14.05;;;;;;;0.36;81.02;100387.31;5010346;28;20096;-70
2021/11/11 05:38:24;;;;;;;21.40;13.40;;;;;;;0.41;80.58;100388.19;5010612;28;20045;-71
2021/11/11 05:40:50;;;;;;;26.30;15.68;;;;;;;0.45;80.45;100382.13;5009869;28;20057;-72
2021/11/11 05:43:15;;;;;;;27.50;16.08;;;;;;;0.43;81.17;100384.72;5010493;28;20034;-71
2021/11/11 05:45:41;;;;;;;34.63;18.77;;;;;;;0.42;80.48;100395.13;5010179;28;20528;-71
2021/11/11 05:48:07;;;;;;;25.70;16.55;;;;;;;0.42;81.12;100397.72;5010510;28;20120;-71
2021/11/11 05:50:33;;;;;;;25.80;14.20;;;;;;;0.42;80.98;100397.72;5010248;28;20503;-71
2021/11/11 05:52:58;;;;;;;28.20;16.60;;;;;;;0.39;81.08;100395.97;5010060;28;20033;-71
2021/11/11 05:55:24;;;;;;;29.63;15.63;;;;;;;0.36;81.07;100388.16;5010562;28;20433;-71
2021/11/11 05:57:49;;;;;;;26.33;14.95;;;;;;;0.37;80.86;100396.81;5009958;28;20041;-71
2021/11/11 06:00:18;;;;;;;23.52;14.15;;;;;;;0.33;80.81;100400.28;5009551;28;20041;-71
2021/11/11 06:02:43;;;;;;;25.67;15.48;;;;;;;0.29;80.83;100398.53;5007907;28;20045;-70
2021/11/11 06:05:09;;;;;;;25.08;14.88;;;;;;;0.29;81.36;100398.53;5009687;28;20038;-70
2021/11/11 06:07:34;;;;;;;31.75;16.88;;;;;;;0.33;80.89;100405.47;4992727;28;20038;-70
2021/11/11 06:09:59;;;;;;;23.65;12.38;;;;;;;0.35;80.67;100395.97;5008232;28;20038;-70
2021/11/11 06:12:25;;;;;;;34.45;17.67;;;;;;;0.37;81.04;100394.22;5007621;28;20042;-70
2021/11/11 06:14:50;;;;;;;26.73;14.57;;;;;;;0.37;81.24;100402.00;5014711;28;20065;-70
2021/11/11 06:17:16;;;;;;;28.73;16.10;;;;;;;0.37;80.75;100402.00;5029103;28;20068;-71
2021/11/11 06:19:43;;;;;;;26.55;14.70;;;;;;;0.32;80.81;100407.19;5029213;28;20060;-71
2021/11/11 06:22:09;;;;;;;30.20;13.82;;;;;;;0.36;81.15;100415.84;5029143;28;20045;-71
2021/11/11 06:24:35;;;;;;;27.27;15.82;;;;;;;0.36;81.05;100411.50;5028890;28;21256;-69
2021/11/11 06:27:01;;;;;;;28.75;14.90;;;;;;;0.39;80.88;100418.44;5029121;28;20519;-70
2021/11/11 06:29:26;;;;;;;27.20;15.25;;;;;;;0.40;81.65;100426.22;5029532;28;20060;-70
2021/11/11 06:31:52;;;;;;;29.70;19.98;;;;;;;0.41;81.05;100427.94;5020740;28;20041;-70
2021/11/11 06:34:20;;;;;;;38.20;20.48;;;;;;;0.39;81.22;100427.09;5011507;28;20034;-70
2021/11/11 06:36:46;;;;;;;31.70;17.05;;;;;;;0.39;80.89;100426.22;5028702;28;20033;-71
2021/11/11 06:39:11;;;;;;;36.80;17.63;;;;;;;0.44;81.54;100429.66;5023434;28;20129;-70
2021/11/11 06:41:36;;;;;;;26.90;15.38;;;;;;;0.45;81.19;100430.56;5009627;28;20038;-70
2021/11/11 06:44:02;;;;;;;29.92;16.10;;;;;;;0.44;81.55;100424.50;5009788;28;20045;-71
2021/11/11 06:46:27;;;;;;;29.05;16.55;;;;;;;0.44;80.94;100432.28;5011312;28;20452;-72
2021/11/11 06:48:53;;;;;;;25.73;14.80;;;;;;;0.48;81.29;100425.38;5011474;28;20034;-71
2021/11/11 06:51:18;;;;;;;32.97;17.52;;;;;;;0.53;81.22;100437.50;5010724;28;20048;-71
2021/11/11 06:53:44;;;;;;;30.63;15.75;;;;;;;0.55;81.38;100427.97;4992223;28;20506;-70
2021/11/11 06:56:09;;;;;;;27.27;15.25;;;;;;;0.62;81.67;100437.50;5010334;28;20026;-70
2021/11/11 06:58:35;;;;;;;29.75;18.08;;;;;;;0.68;80.93;100428.88;4993632;28;20046;-70
2021/11/11 07:01:01;;;;;;;37.95;19.27;;;;;;;0.68;81.07;100426.25;5010359;28;20049;-70
2021/11/11 07:03:28;;;;;;;29.83;16.90;;;;;;;0.71;80.96;100439.25;4992954;28;20050;-71
2021/11/11 07:05:54;;;;;;;34.20;17.33;;;;;;;0.77;81.67;100441.00;4992357;28;20040;-71
2021/11/11 07:08:20;;;;;;;42.60;21.73;;;;;;;0.73;81.42;100444.44;5008624;28;20041;-70
2021/11/11 07:10:48;;;;;;;40.50;20.88;;;;;;;0.74;81.14;100448.75;5008258;28;20479;-71
2021/11/11 07:13:15;;;;;;;34.85;20.27;;;;;;;0.82;81.32;100447.06;5007845;28;20100;-70
2021/11/11 07:15:42;;;;;;;29.80;17.42;;;;;;;0.88;81.66;100461.75;4990611;28;20340;-70
2021/11/11 07:18:10;;;;;;;49.10;22.17;;;;;;;0.96;81.48;100465.22;5008396;28;20038;-70
2021/11/11 07:20:36;;;;;;;32.08;17.38;;;;;;;1.00;81.24;100465.22;5007937;28;20030;-70
2021/11/11 07:23:04;;;;;;;30.00;18.48;;;;;;;1.05;81.88;100468.69;4991251;28;20026;-70
2021/11/11 07:25:30;;;;;;;37.97;19.83;;;;;;;1.09;81.51;100471.31;5009131;28;20034;-71
2021/11/11 07:27:57;;;;;;;36.17;19.30;;;;;;;1.12;80.97;100461.78;5009482;28;20030;-70
2021/11/11 07:30:23;;;;;;;42.05;26.50;;;;;;;1.22;81.47;100473.03;4990813;28;20555;-70
2021/11/11 07:32:49;;;;;;;32.90;18.98;;;;;;;1.28;80.94;100465.25;5008694;28;20409;-70
2021/11/11 07:35:15;;;;;;;46.38;23.75;;;;;;;1.31;80.31;100467.84;5008798;28;20029;-71
2021/11/11 07:37:42;;;;;;;25.27;16.17;;;;;;;1.39;81.22;100468.69;5008641;28;20497;-70
2021/11/11 07:40:10;;;;;;;41.75;22.27;;;;;;;1.45;81.10;100476.50;5007563;28;20105;-71
2021/11/11 07:42:36;;;;;;;37.38;19.33;;;;;;;1.48;81.02;100481.69;5008899;28;20057;-71
2021/11/11 07:45:03;;;;;;;32.17;18.67;;;;;;;1.53;80.43;100479.09;5008432;28;20033;-71
2021/11/11 07:47:29;;;;;;;39.53;21.50;;;;;;;1.57;80.68;100486.00;5006817;28;20133;-71
2021/11/11 07:50:00;;;;;;;41.22;21.67;;;;;;;1.63;80.72;100491.19;5008147;28;20037;-71
2021/11/11 07:52:27;;;;;;;40.05;22.95;;;;;;;1.70;81.15;100497.25;5007597;28;20034;-69
2021/11/11 07:54:55;;;;;;;31.95;20.23;;;;;;;1.79;81.23;100496.34;5008423;28;20112;-72
2021/11/11 07:57:23;;;;;;;41.47;23.33;;;;;;;1.86;81.01;100495.47;5008466;28;20068;-72
2021/11/11 07:59:49;;;;;;;30.73;20.73;;;;;;;1.95;80.60;100494.59;5007099;28;20083;-70
2021/11/11 08:02:15;;;;;;;43.13;21.02;;;;;;;2.00;80.66;100492.84;5007251;28;20033;-71
2021/11/11 08:04:41;;;;;;;35.95;21.83;;;;;;;2.04;81.36;100489.34;5008170;28;20076;-72
2021/11/11 08:07:06;;;;;;;42.65;23.63;;;;;;;2.08;81.10;100489.34;5007591;28;20073;-72
2021/11/11 08:09:32;;;;;;;32.35;19.60;;;;;;;2.17;80.96;100478.06;5007163;28;20083;-72
2021/11/11 08:11:57;;;;;;;38.15;19.90;;;;;;;2.29;81.04;100483.22;5007141;28;20092;-71
2021/11/11 08:14:24;;;;;;;31.13;20.00;;;;;;;2.42;81.08;100484.00;5007417;28;20041;-71
2021/11/11 08:16:50;;;;;;;36.00;22.50;;;;;;;2.53;80.33;100486.56;5007294;28;20032;-71
2021/11/11 08:19:16;;;;;;;35.80;20.52;;;;;;;2.61;80.10;100484.78;5007105;28;20472;-71
2021/11/11 08:21:41;;;;;;;30.52;19.38;;;;;;;2.72;80.61;100477.78;4989498;28;20026;-71
2021/11/11 08:24:06;;;;;;;36.70;19.63;;;;;;;2.86;80.18;100484.66;5014159;28;20095;-72
2021/11/11 08:26:32;;;;;;;35.33;19.83;;;;;;;2.96;79.65;100478.50;5009108;28;20036;-71
2021/11/11 08:28:58;;;;;;;31.75;16.90;;;;;;;3.11;79.82;100480.13;5027136;28;20775;-71
2021/11/11 08:31:23;;;;;;;34.15;20.13;;;;;;;3.25;79.48;100485.22;5025976;28;20098;-71
2021/11/11 08:33:51;;;;;;;40.75;21.85;;;;;;;3.27;78.69;100479.09;5027170;28;20043;-72
2021/11/11 08:36:17;;;;;;;30.63;20.67;;;;;;;3.40;79.05;100483.38;5027105;28;20037;-71
2021/11/11 08:38:42;;;;;;;30.25;19.13;;;;;;;3.55;79.09;100484.97;5026827;28;20128;-71
2021/11/11 08:41:08;;;;;;;37.47;21.33;;;;;;;3.65;78.76;100489.22;5026588;28;20026;-71
2021/11/11 08:43:33;;;;;;;37.60;21.02;;;;;;;3.75;78.37;100492.59;5008685;28;20034;-72
2021/11/11 08:45:59;;;;;;;32.55;20.08;;;;;;;3.81;78.34;100489.03;5008576;28;20034;-72
2021/11/11 08:48:24;;;;;;;35.00;20.60;;;;;;;4.21;78.18;100484.28;5006611;28;20034;-71
2021/11/11 08:50:50;;;;;;;37.63;21.10;;;;;;;5.06;75.66;100476.13;5007208;28;20034;-71
2021/11/11 08:53:17;;;;;;;33.15;21.13;;;;;;;5.88;72.77;100479.94;5015034;28;20030;-71
2021/11/11 08:55:43;;;;;;;26.92;17.70;;;;;;;6.81;69.90;100482.44;5009031;28;20463;-71
2021/11/11 08:58:10;;;;;;;34.45;17.52;;;;;;;7.59;66.79;100488.44;5007433;28;20033;-71
2021/11/11 09:00:41;;;;;;;27.58;18.50;;;;;;;8.31;65.26;100475.94;5005757;28;20148;-71
2021/11/11 09:03:07;;;;;;;33.47;20.58;;;;;;;8.95;62.30;100477.59;5007292;28;20092;-71
2021/11/11 09:05:34;;;;;;;29.40;19.92;;;;;;;9.45;60.54;100475.97;4989521;28;20634;-71
2021/11/11 09:08:02;;;;;;;25.42;16.08;;;;;;;10.05;58.97;100470.38;5006938;28;20112;-70
2021/11/11 09:10:28;;;;;;;32.17;21.48;;;;;;;10.53;57.46;100477.41;5006933;28;20030;-71
2021/11/11 09:12:54;;;;;;;31.42;18.48;;;;;;;10.99;56.77;100470.34;4973138;28;20042;-71
2021/11/11 09:15:23;;;;;;;25.00;16.98;;;;;;;11.52;54.89;100467.31;5006819;28;20041;-74
2021/11/11 09:17:51;;;;;;;31.45;18.75;;;;;;;12.00;53.41;100466.13;5006377;28;20618;-71
2021/11/11 09:20:18;;;;;;;25.95;18.08;;;;;;;12.40;52.96;100456.41;5005846;28;20121;-71
2021/11/11 09:22:44;;;;;;;21.33;15.55;;;;;;;12.76;52.27;100452.97;5006255;28;20465;-71
2021/11/11 09:25:10;;;;;;;21.17;15.68;;;;;;;13.35;50.16;100448.34;5007056;28;20038;-71
2021/11/11 09:27:38;;;;;;;22.27;16.73;;;;;;;13.75;48.96;100449.81;5006774;28;20515;-72
2021/11/11 09:30:06;;;;;;;31.52;19.13;;;;;;;13.98;48.63;100442.50;5005742;28;20087;-71
2021/11/11 09:32:31;;;;;;;28.35;20.05;;;;;;;14.12;48.33;100444.38;5006129;28;20049;-71
2021/11/11 09:34:57;;;;;;;29.17;19.77;;;;;;;14.40;47.87;100443.78;5006784;28;20040;-71
2021/11/11 09:37:22;;;;;;;26.73;18.05;;;;;;;14.63;47.51;100437.22;5007314;28;20125;-72
2021/11/11 09:39:48;;;;;;;22.38;16.90;;;;;;;14.96;46.98;100436.25;5007012;28;20080;-73
2021/11/11 09:42:14;;;;;;;21.35;16.65;;;;;;;15.43;45.84;100436.16;5006899;28;20113;-73
2021/11/11 09:44:40;;;;;;;47.25;20.67;;;;;;;15.61;45.25;100428.06;4981689;28;20367;-72
2021/11/11 09:47:05;;;;;;;31.45;18.67;;;;;;;15.89;44.62;100429.91;4994022;28;20037;-71
2021/11/11 09:49:31;;;;;;;33.92;20.30;;;;;;;16.26;45.19;100424.97;5000758;28;20049;-71
2021/11/11 09:51:57;;;;;;;24.88;17.13;;;;;;;16.68;43.26;100413.41;5011902;28;20041;-72
2021/11/11 09:59:41;;;;;;;27.45;18.23;;;;;;;17.32;41.81;100413.66;5000537;28;20409;-72
2021/11/11 10:02:08;;;;;;;32.58;20.45;;;;;;;17.05;42.46;100413.69;5000730;28;20576;-71
2021/11/11 10:04:34;;;;;;;30.02;19.83;;;;;;;17.17;42.53;100414.69;5001159;28;20065;-71
2021/11/11 10:07:01;;;;;;;35.63;22.70;;;;;;;16.80;42.72;100416.28;5000419;28;20622;-72
2021/11/11 10:09:26;;;;;;;28.90;20.95;;;;;;;16.01;44.17;100421.19;5001066;28;20652;-72
2021/11/11 10:12:00;;;;;;;31.52;21.55;;;;;;;15.24;46.09;100433.72;5003294;28;20037;-71
2021/11/11 10:14:36;;;;;;;29.95;18.70;;;;;;;14.60;48.31;100430.28;5004265;28;20042;-70
2021/11/11 10:17:03;;;;;;;34.97;20.55;;;;;;;14.32;48.01;100422.09;5009373;28;20218;-72
2021/11/11 10:19:33;;;;;;;30.88;17.92;;;;;;;13.74;49.38;100434.03;5023693;28;20041;-70
2021/11/11 10:22:11;;;;;;;31.42;16.52;;;;;;;13.65;50.17;100429.19;5023506;28;20036;-70
2021/11/11 10:24:48;;;;;;;28.02;18.65;;;;;;;13.59;50.68;100426.88;5023956;28;20061;-70
2021/11/11 10:27:43;;;;;;;27.70;18.65;;;;;;;13.42;50.75;100425.94;5022896;28;20045;-70
2021/11/11 10:30:19;;;;;;;30.20;18.83;;;;;;;12.93;51.69;100417.75;5023630;28;20045;-69
2021/11/11 10:32:46;;;;;;;28.13;18.73;;;;;;;12.60;52.69;100421.09;5023515;28;20058;-70
2021/11/11 10:35:19;;;;;;;26.58;17.40;;;;;;;12.49;53.08;100418.09;5024034;28;20041;-70
2021/11/11 10:37:53;;;;;;;31.63;18.67;;;;;;;12.22;54.22;100413.16;5023218;28;20033;-70
2021/11/11 10:40:20;;;;;;;30.92;17.15;;;;;;;12.10;54.67;100403.13;5014145;28;20369;-69
2021/11/11 10:42:47;;;;;;;35.15;20.05;;;;;;;12.07;53.87;100400.63;4986790;28;20109;-70
2021/11/11 10:45:18;;;;;;;25.40;12.88;;;;;;;11.74;54.08;100405.59;5004780;28;20041;-71
2021/11/11 10:47:49;;;;;;;37.60;13.48;;;;;;;11.60;54.81;100407.09;5003089;28;20077;-70
2021/11/11 10:50:18;;;;;;;37.45;14.15;;;;;;;11.51;54.56;100393.41;5004419;28;20064;-72
2021/11/11 10:52:50;;;;;;;23.35;11.77;;;;;;;11.47;54.28;100391.81;5003629;28;20116;-70
2021/11/11 10:55:32;;;;;;;21.77;12.25;;;;;;;11.48;55.14;100385.63;4986692;28;20050;-70
2021/11/11 10:58:02;;;;;;;19.58;11.18;;;;;;;11.50;54.88;100392.56;5002195;28;20873;-70
2021/11/11 11:00:34;;;;;;;29.55;14.18;;;;;;;11.53;55.38;100392.44;5002760;28;20112;-71
2021/11/11 11:02:59;;;;;;;20.83;11.82;;;;;;;11.48;56.00;100393.56;5003496;28;20049;-69
2021/11/11 11:05:28;;;;;;;22.20;12.70;;;;;;;11.34;55.95;100394.13;5002993;28;20072;-69
2021/11/11 11:08:05;;;;;;;20.15;11.52;;;;;;;11.34;56.45;100397.63;5003166;28;20037;-70
2021/11/11 11:10:33;;;;;;;12.52;9.90;;;;;;;11.35;56.44;100394.09;5002495;28;20044;-70
2021/11/11 11:13:05;;;;;;;18.63;11.98;;;;;;;11.36;56.21;100395.78;4985223;28;20049;-68
2021/11/11 11:16:04;;;;;;;19.05;9.75;;;;;;;11.29;56.70;100399.59;5002160;28;20411;-70
2021/11/11 11:18:37;;;;;;;17.45;12.35;;;;;;;11.18;57.02;100396.59;4999257;28;20046;-70
2021/11/11 11:21:09;;;;;;;18.30;11.25;;;;;;;11.20;57.45;100399.13;4986319;28;20866;-70
2021/11/11 11:23:44;;;;;;;20.85;12.02;;;;;;;11.22;57.06;100395.50;5004045;28;20037;-69
2021/11/11 11:26:13;;;;;;;25.93;12.23;;;;;;;11.10;57.57;100396.03;4985286;28;20037;-70
2021/11/11 11:29:21;;;;;;;23.00;12.45;;;;;;;11.13;57.36;100393.28;5002558;28;20065;-69
2021/11/11 11:31:51;;;;;;;21.10;12.52;;;;;;;11.15;57.44;100391.44;5001358;28;20045;-70
2021/11/11 11:34:28;;;;;;;17.38;10.93;;;;;;;11.08;58.09;100393.47;5002833;28;20124;-71
2021/11/11 11:37:01;;;;;;;18.15;10.65;;;;;;;11.11;57.83;100385.41;5002583;28;20064;-71
2021/11/11 11:39:31;;;;;;;22.80;14.18;;;;;;;11.08;57.55;100395.25;5004554;28;20544;-69
2021/11/11 11:42:05;;;;;;;21.15;13.43;;;;;;;11.08;58.31;100385.56;5021551;28;20124;-69
2021/11/11 11:44:39;;;;;;;29.92;12.85;;;;;;;11.17;58.32;100377.25;5022654;28;20037;-70
2021/11/11 11:47:12;;;;;;;20.65;12.18;;;;;;;11.17;58.20;100385.16;5011926;28;20037;-68